Time;durP1;ratioP1;P1;durP2;ratioP2;P2;SDS_P1;SDS_P2;PMS_P1;PMS_P2;Temp;Humidity;BMP_temperature;BMP_pressure;BME280_temperature;BME280_humidity;BME280_pressure;Samples;Min_cycle;Max_cycle;Signal;HPM_P1;HPM_P2
2022/08/03 00:00:23;;;;;;;3.30;2.27;;;;;;;;;;5107417;28;20468;-72
2022/08/03 00:02:50;;;;;;;2.80;2.00;;;;;;;;;;5106715;28;20444;-72
2022/08/03 00:05:17;;;;;;;3.10;2.80;;;;;;;;;;5096523;28;20541;-71
2022/08/03 00:07:45;;;;;;;2.50;2.20;;;;;;;;;;5098419;28;20547;-72
2022/08/03 00:10:13;;;;;;;2.90;2.57;;;;;;;;;;5090994;28;20433;-72
2022/08/03 00:12:40;;;;;;;2.40;1.87;;;;;;;;;;5090294;28;20443;-71
2022/08/03 00:15:08;;;;;;;2.30;2.10;;;;;;;;;;5094274;28;20440;-72
2022/08/03 00:17:35;;;;;;;2.63;2.40;;;;;;;;;;5094060;28;20568;-72
2022/08/03 00:20:05;;;;;;;2.80;2.07;;;;;;;;;;5094531;28;20779;-72
2022/08/03 00:22:35;;;;;;;2.40;1.70;;;;;;;;;;5093997;28;20520;-74
2022/08/03 00:25:03;;;;;;;2.40;2.20;;;;;;;;;;5094323;28;20515;-73
2022/08/03 00:27:31;;;;;;;1.93;1.83;;;;;;;;;;5093662;28;20445;-73
2022/08/03 00:29:58;;;;;;;2.37;2.17;;;;;;;;;;5093506;28;20502;-72
2022/08/03 00:32:25;;;;;;;2.90;2.07;;;;;;;;;;5093565;28;20464;-71
2022/08/03 00:34:52;;;;;;;2.60;2.00;;;;;;;;;;5092974;28;20555;-72
2022/08/03 00:37:19;;;;;;;3.63;2.70;;;;;;;;;;5092789;28;20482;-72
2022/08/03 00:39:46;;;;;;;2.70;2.50;;;;;;;;;;5093334;28;20437;-72
2022/08/03 00:42:15;;;;;;;2.50;2.30;;;;;;;;;;5093682;28;20525;-72
2022/08/03 00:44:42;;;;;;;2.50;2.13;;;;;;;;;;5092943;28;20437;-72
2022/08/03 00:47:10;;;;;;;2.20;2.00;;;;;;;;;;5092791;28;20942;-71
2022/08/03 00:49:37;;;;;;;4.33;2.67;;;;;;;;;;5093099;28;20509;-70
2022/08/03 00:52:04;;;;;;;2.60;2.40;;;;;;;;;;5093711;28;20476;-71
2022/08/03 00:54:32;;;;;;;3.00;2.33;;;;;;;;;;5093716;28;20523;-72
2022/08/03 00:56:59;;;;;;;2.50;1.87;;;;;;;;;;5092179;28;20455;-71
2022/08/03 00:59:28;;;;;;;4.60;2.50;;;;;;;;;;5093477;28;20440;-71
2022/08/03 01:01:55;;;;;;;2.90;2.10;;;;;;;;;;5092352;28;20884;-71
2022/08/03 01:04:22;;;;;;;2.00;1.80;;;;;;;;;;5093104;28;20882;-72
2022/08/03 01:06:51;;;;;;;2.63;1.90;;;;;;;;;;5092362;28;20472;-71
2022/08/03 01:09:20;;;;;;;2.43;2.10;;;;;;;;;;5093058;28;20924;-73
2022/08/03 01:11:50;;;;;;;2.73;2.37;;;;;;;;;;5092638;28;20522;-72
2022/08/03 01:14:21;;;;;;;2.23;2.03;;;;;;;;;;5093177;28;20503;-72
2022/08/03 01:16:57;;;;;;;2.43;2.10;;;;;;;;;;5092159;28;20778;-72
2022/08/03 01:19:36;;;;;;;2.63;2.07;;;;;;;;;;5093153;28;20465;-72
2022/08/03 01:22:09;;;;;;;2.43;2.00;;;;;;;;;;5093339;28;20461;-72
2022/08/03 01:24:42;;;;;;;3.23;2.27;;;;;;;;;;5092139;28;20528;-69
2022/08/03 01:27:12;;;;;;;3.93;2.50;;;;;;;;;;5092819;28;20439;-71
2022/08/03 01:29:51;;;;;;;3.43;2.67;;;;;;;;;;5092293;28;20520;-71
2022/08/03 01:32:20;;;;;;;2.63;2.10;;;;;;;;;;5092944;28;20436;-72
2022/08/03 01:34:51;;;;;;;2.57;2.30;;;;;;;;;;5079104;28;20878;-72
2022/08/03 01:37:22;;;;;;;2.10;1.90;;;;;;;;;;5088953;28;20439;-72
2022/08/03 01:39:50;;;;;;;1.93;1.70;;;;;;;;;;5091914;28;20798;-72
2022/08/03 01:42:18;;;;;;;3.17;2.10;;;;;;;;;;5092464;28;20436;-72
2022/08/03 01:44:47;;;;;;;5.47;2.23;;;;;;;;;;5091843;28;21027;-72
2022/08/03 01:47:16;;;;;;;2.70;2.13;;;;;;;;;;5092082;28;20464;-72
2022/08/03 01:49:44;;;;;;;2.83;2.37;;;;;;;;;;5091638;28;20440;-71
2022/08/03 01:52:12;;;;;;;2.90;2.57;;;;;;;;;;5092441;28;20443;-72
2022/08/03 01:54:42;;;;;;;2.20;2.00;;;;;;;;;;5091864;28;20437;-71
2022/08/03 01:57:10;;;;;;;2.13;1.93;;;;;;;;;;5091702;28;20510;-71
2022/08/03 01:59:38;;;;;;;2.30;2.10;;;;;;;;;;5091839;28;20563;-71
2022/08/03 02:02:06;;;;;;;2.00;1.80;;;;;;;;;;5091846;28;20447;-72
2022/08/03 02:04:35;;;;;;;2.27;2.07;;;;;;;;;;5091942;28;20443;-72
2022/08/03 02:07:03;;;;;;;2.50;2.30;;;;;;;;;;5104721;28;20535;-72
2022/08/03 02:09:30;;;;;;;4.13;2.20;;;;;;;;;;5092092;28;20841;-72
2022/08/03 02:11:58;;;;;;;1.97;1.77;;;;;;;;;;5091283;28;20433;-72
2022/08/03 02:14:26;;;;;;;2.97;2.77;;;;;;;;;;5091795;28;20452;-72
2022/08/03 02:16:53;;;;;;;2.23;1.83;;;;;;;;;;5091045;28;20437;-72
2022/08/03 02:19:20;;;;;;;2.43;2.17;;;;;;;;;;5091817;28;20475;-71
2022/08/03 02:21:49;;;;;;;2.00;1.80;;;;;;;;;;5091508;28;20437;-72
2022/08/03 02:24:16;;;;;;;2.00;1.80;;;;;;;;;;5091495;28;20919;-70
2022/08/03 02:26:44;;;;;;;2.03;1.83;;;;;;;;;;5090453;28;20943;-70
2022/08/03 02:29:12;;;;;;;3.73;2.43;;;;;;;;;;5091826;28;20445;-69
2022/08/03 02:31:40;;;;;;;2.53;1.90;;;;;;;;;;5091202;28;20445;-72
2022/08/03 02:34:09;;;;;;;2.47;2.27;;;;;;;;;;5091884;28;20469;-71
2022/08/03 02:36:38;;;;;;;3.70;2.67;;;;;;;;;;5090047;28;20437;-69
2022/08/03 02:39:08;;;;;;;2.20;2.00;;;;;;;;;;5091785;28;20476;-73
2022/08/03 02:41:37;;;;;;;2.80;2.10;;;;;;;;;;5091497;28;20445;-72
2022/08/03 02:44:08;;;;;;;2.57;2.37;;;;;;;;;;5091850;28;20447;-72
2022/08/03 02:46:38;;;;;;;2.10;1.83;;;;;;;;;;5091683;28;20806;-71
2022/08/03 02:49:06;;;;;;;3.17;2.23;;;;;;;;;;5091471;28;20437;-72
2022/08/03 02:51:34;;;;;;;2.23;2.03;;;;;;;;;;5091332;28;20433;-72
2022/08/03 02:54:02;;;;;;;4.47;2.60;;;;;;;;;;5091342;28;20445;-71
2022/08/03 02:56:31;;;;;;;2.37;2.00;;;;;;;;;;5090447;28;20441;-72
2022/08/03 02:58:59;;;;;;;2.57;2.03;;;;;;;;;;5090682;28;20479;-71
2022/08/03 03:01:28;;;;;;;2.07;1.87;;;;;;;;;;5091214;28;20445;-72
2022/08/03 03:03:56;;;;;;;2.90;2.27;;;;;;;;;;5090507;28;20799;-72
2022/08/03 03:06:24;;;;;;;2.60;2.10;;;;;;;;;;5090930;28;20498;-72
2022/08/03 03:08:52;;;;;;;2.33;2.00;;;;;;;;;;5090838;28;20924;-72
2022/08/03 03:11:20;;;;;;;4.07;2.17;;;;;;;;;;5090940;28;20466;-71
2022/08/03 03:13:49;;;;;;;3.30;2.63;;;;;;;;;;5090274;28;21002;-72
2022/08/03 03:16:16;;;;;;;3.00;2.50;;;;;;;;;;5090776;28;20445;-72
2022/08/03 03:18:45;;;;;;;3.17;2.27;;;;;;;;;;5090688;28;20486;-72
2022/08/03 03:21:13;;;;;;;2.23;2.03;;;;;;;;;;5090857;28;20856;-72
2022/08/03 03:23:41;;;;;;;3.30;2.37;;;;;;;;;;5090543;28;20912;-72
2022/08/03 03:26:08;;;;;;;2.20;2.00;;;;;;;;;;5090654;28;20934;-71
2022/08/03 03:28:36;;;;;;;3.13;2.60;;;;;;;;;;5091264;28;20440;-72
2022/08/03 03:31:06;;;;;;;2.73;2.23;;;;;;;;;;5091574;28;20468;-72
2022/08/03 03:33:34;;;;;;;2.87;2.30;;;;;;;;;;5091112;28;20444;-71
2022/08/03 03:36:01;;;;;;;2.20;1.83;;;;;;;;;;5093946;28;20811;-71
2022/08/03 03:38:29;;;;;;;2.50;2.30;;;;;;;;;;5091054;28;20899;-72
2022/08/03 03:40:56;;;;;;;2.93;2.63;;;;;;;;;;5090391;28;21278;-71
2022/08/03 03:43:24;;;;;;;2.67;2.20;;;;;;;;;;5091009;28;20842;-71
2022/08/03 03:45:52;;;;;;;2.57;2.37;;;;;;;;;;5089997;28;20440;-71
2022/08/03 03:48:21;;;;;;;2.83;2.60;;;;;;;;;;5093243;28;20532;-72
2022/08/03 03:50:49;;;;;;;3.73;2.93;;;;;;;;;;5094178;28;20440;-71
2022/08/03 03:53:17;;;;;;;2.53;2.33;;;;;;;;;;5094745;28;20437;-71
2022/08/03 03:55:44;;;;;;;3.20;2.77;;;;;;;;;;5093625;28;20801;-71
2022/08/03 03:58:11;;;;;;;2.93;2.63;;;;;;;;;;5094330;28;20779;-71
2022/08/03 04:00:38;;;;;;;2.40;2.20;;;;;;;;;;5094125;28;20436;-71
2022/08/03 04:03:06;;;;;;;3.77;2.70;;;;;;;;;;5098229;28;20458;-72
2022/08/03 04:11:08;;;;;;;2.80;2.33;;;;;;;;;;5097162;28;20424;-72
2022/08/03 04:13:37;;;;;;;2.70;2.20;;;;;;;;;;5082253;28;20519;-72
2022/08/03 04:16:05;;;;;;;2.83;2.20;;;;;;;;;;5094193;28;20447;-72
2022/08/03 04:18:34;;;;;;;3.37;2.87;;;;;;;;;;5094465;28;20563;-72
2022/08/03 04:21:04;;;;;;;3.20;3.00;;;;;;;;;;5094178;28;20884;-71
2022/08/03 04:23:31;;;;;;;4.30;2.43;;;;;;;;;;5094212;28;20527;-71
2022/08/03 04:26:00;;;;;;;2.90;2.60;;;;;;;;;;5093136;28;20437;-71
2022/08/03 04:28:28;;;;;;;4.00;3.00;;;;;;;;;;5094009;28;20459;-71
2022/08/03 04:30:56;;;;;;;4.70;2.87;;;;;;;;;;5093502;28;20452;-71
2022/08/03 04:33:23;;;;;;;3.90;3.07;;;;;;;;;;5094286;28;20815;-71
2022/08/03 04:35:52;;;;;;;3.20;2.90;;;;;;;;;;5092575;28;20472;-71
2022/08/03 04:38:22;;;;;;;2.30;2.10;;;20.20;99.90;;;;;;5093823;28;20444;-71
2022/08/03 04:40:49;;;;;;;3.53;2.40;;;18.40;1.00;;;;;;5093288;28;20451;-71
2022/08/03 04:43:19;;;;;;;3.50;2.63;;;18.30;19.80;;;;;;5093291;28;20982;-71
2022/08/03 04:45:48;;;;;;;4.17;3.10;;;18.20;57.30;;;;;;5092769;28;20447;-71
2022/08/03 04:48:16;;;;;;;2.97;2.77;;;18.10;99.90;;;;;;5093284;28;21114;-71
2022/08/03 04:50:43;;;;;;;4.30;3.23;;;18.00;99.90;;;;;;5092888;28;20796;-71
2022/08/03 04:53:10;;;;;;;3.40;2.17;;;18.10;99.90;;;;;;5093497;28;20531;-71
2022/08/03 04:55:38;;;;;;;3.40;2.50;;;18.30;92.60;;;;;;5092514;28;20536;-70
2022/08/03 04:58:05;;;;;;;4.53;2.97;;;18.20;99.90;;;;;;5093482;28;20437;-72
2022/08/03 05:00:32;;;;;;;3.40;2.97;;;18.30;98.10;;;;;;5092597;28;20481;-71
2022/08/03 05:02:59;;;;;;;3.17;2.60;;;18.50;1.00;;;;;;5092377;28;20460;-71
2022/08/03 05:05:26;;;;;;;2.60;2.20;;;18.50;1.00;;;;;;5098069;28;20570;-71
2022/08/03 05:07:53;;;;;;;3.77;2.77;;;18.50;1.00;;;;;;5099395;28;20463;-72
2022/08/03 05:10:20;;;;;;;3.83;2.80;;;18.60;1.00;;;;;;5079590;28;20449;-71
2022/08/03 05:12:50;;;;;;;3.80;2.90;;;18.60;1.00;;;;;;5092397;28;20441;-70
2022/08/03 05:15:17;;;;;;;3.87;2.83;;;18.80;1.00;;;;;;5092630;28;20949;-71
2022/08/03 05:17:44;;;;;;;3.80;2.70;;;18.80;1.00;;;;;;5092217;28;20441;-71
2022/08/03 05:20:12;;;;;;;3.33;2.70;;;18.90;1.00;;;;;;5092940;28;20475;-71
2022/08/03 05:22:39;;;;;;;4.23;2.90;;;18.90;99.90;;;;;;5092389;28;20524;-71
2022/08/03 05:25:06;;;;;;;3.40;2.93;;;19.10;99.90;;;;;;5092598;28;20527;-72
2022/08/03 05:27:33;;;;;;;4.70;3.00;;;19.20;7.10;;;;;;5092486;28;20473;-71
2022/08/03 05:30:01;;;;;;;4.27;3.33;;;19.30;1.00;;;;;;5092343;28;20440;-72
2022/08/03 05:32:28;;;;;;;2.70;2.50;;;19.30;99.90;;;;;;5092665;28;20441;-71
2022/08/03 05:34:55;;;;;;;4.00;3.17;;;19.50;99.90;;;;;;5091767;28;20530;-71
2022/08/03 05:37:22;;;;;;;4.03;3.70;;;19.50;99.90;;;;;;5092832;28;20509;-72
2022/08/03 05:39:49;;;;;;;3.07;2.77;;;19.60;1.00;;;;;;5092215;28;20576;-71
2022/08/03 05:42:16;;;;;;;4.10;3.63;;;19.60;1.00;;;;;;5092444;28;20539;-71
2022/08/03 05:44:42;;;;;;;3.30;3.00;;;19.70;99.90;;;;;;5091812;28;20507;-72
2022/08/03 05:47:11;;;;;;;2.93;2.70;;;19.80;15.70;;;;;;5092554;28;20442;-72
2022/08/03 05:49:38;;;;;;;4.60;3.20;;;19.90;99.90;;;;;;5091612;28;20441;-71
2022/08/03 05:52:05;;;;;;;3.37;3.07;;;20.00;1.00;;;;;;5092599;28;20468;-71
2022/08/03 05:54:32;;;;;;;3.60;2.50;;;20.10;1.00;;;;;;5092691;28;20445;-71
2022/08/03 05:56:59;;;;;;;6.20;4.00;;;20.20;99.90;;;;;;5091485;28;20515;-71
2022/08/03 05:59:26;;;;;;;2.93;2.63;;;20.30;1.00;;;;;;5092075;28;20559;-71
2022/08/03 06:01:52;;;;;;;4.10;2.97;;;20.40;25.70;;;;;;5091341;28;20911;-72
2022/08/03 06:04:21;;;;;;;3.43;3.03;;;20.60;1.00;;;;;;5092444;28;20436;-72
2022/08/03 06:06:49;;;;;;;4.17;3.33;;;20.70;99.90;;;;;;5091240;28;20817;-72
2022/08/03 06:09:16;;;;;;;4.20;3.33;;;20.80;99.90;;;;;;5092048;28;20452;-72
2022/08/03 06:11:43;;;;;;;4.40;2.77;;;21.00;99.90;;;;;;5091628;28;20447;-72
2022/08/03 06:14:10;;;;;;;3.80;3.33;;;21.10;3.50;;;;;;5092117;28;20527;-72
2022/08/03 06:16:37;;;;;;;5.63;3.00;;;21.30;2.00;;;;;;5090993;28;20528;-71
2022/08/03 06:19:04;;;;;;;2.80;2.50;;;21.50;1.00;;;;;;5092003;28;20508;-72
2022/08/03 06:21:32;;;;;;;4.20;2.50;;;;;;;;;;5091557;28;20441;-73
2022/08/03 06:23:59;;;;;;;3.10;2.80;;;;;;;;;;5091049;28;20470;-71
2022/08/03 06:26:27;;;;;;;2.50;2.30;;;;;;;;;;5091168;28;20888;-72
2022/08/03 06:28:55;;;;;;;3.17;2.30;;;;;;;;;;5090938;28;20968;-72
2022/08/03 06:31:24;;;;;;;3.10;2.70;;;;;;;;;;5091815;28;20444;-72
2022/08/03 06:33:51;;;;;;;2.50;2.30;;;;;;;;;;5091191;28;20480;-72
2022/08/03 06:36:19;;;;;;;3.17;2.30;;;;;;;;;;5091218;28;20912;-72
2022/08/03 06:38:47;;;;;;;5.20;2.67;;;;;;;;;;5091081;28;20837;-72
2022/08/03 06:41:14;;;;;;;2.67;2.27;;;;;;;;;;5091856;28;20451;-72
2022/08/03 06:43:42;;;;;;;2.93;2.50;;;;;;;;;;5090752;28;20935;-72
2022/08/03 06:46:09;;;;;;;2.40;2.20;;;;;;;;;;5091469;28;20536;-72
2022/08/03 06:48:36;;;;;;;2.40;2.20;;;;;;;;;;5091282;28;20441;-69
2022/08/03 06:51:04;;;;;;;3.00;2.37;;;;;;;;;;5091848;28;20475;-73
2022/08/03 06:53:31;;;;;;;2.40;2.00;;;;;;;;;;5091578;28;20437;-73
2022/08/03 06:55:59;;;;;;;3.00;2.30;;;;;;;;;;5090745;28;20451;-72
2022/08/03 06:58:26;;;;;;;2.30;1.77;;;;;;;;;;5091471;28;20448;-72
2022/08/03 07:00:54;;;;;;;2.67;2.37;;;;;;;;;;5090951;28;20484;-73
2022/08/03 07:03:21;;;;;;;2.23;2.03;;;;;;;;;;5091843;28;20448;-73
2022/08/03 07:05:49;;;;;;;2.60;2.13;;;;;;;;;;5090372;28;20528;-73
2022/08/03 07:08:16;;;;;;;2.20;2.00;;;;;;;;;;5091175;28;20441;-74
2022/08/03 07:10:44;;;;;;;2.23;2.03;;;;;;;;;;5090997;28;20528;-73
2022/08/03 07:13:12;;;;;;;2.40;2.20;;;;;;;;;;5090800;28;20939;-73
2022/08/03 07:15:40;;;;;;;2.40;2.20;;;;;;;;;;5090312;28;20437;-73
2022/08/03 07:18:07;;;;;;;2.90;2.60;;;;;;;;;;5091346;28;20437;-72
2022/08/03 07:20:35;;;;;;;3.13;2.33;;;;;;;;;;5091316;28;20479;-72
2022/08/03 07:23:02;;;;;;;1.97;1.80;;;;;;;;;;5093503;28;20452;-73
2022/08/03 07:25:29;;;;;;;2.20;1.57;;;;;;;;;;5094743;28;20911;-72
2022/08/03 07:27:56;;;;;;;1.90;1.63;;;;;;;;;;5094651;28;20839;-72
2022/08/03 07:30:24;;;;;;;2.60;2.10;;;;;;;;;;5095482;28;20443;-74
2022/08/03 07:32:51;;;;;;;2.30;2.10;;;;;;;;;;5094825;28;20452;-73
2022/08/03 07:35:19;;;;;;;2.00;1.80;;;;;;;;;;5094595;28;20475;-73
2022/08/03 07:37:46;;;;;;;2.63;1.57;;;;;;;;;;5094298;28;20967;-73
2022/08/03 07:40:13;;;;;;;1.67;1.50;;;;;;;;;;5094995;28;20563;-73
2022/08/03 07:42:40;;;;;;;1.53;1.37;;;;;;;;;;5094285;28;20915;-72
2022/08/03 07:45:08;;;;;;;2.90;1.30;;;;;;;;;;5094367;28;20440;-72
2022/08/03 07:47:36;;;;;;;2.13;1.60;;;;;;;;;;5095345;28;20498;-73
2022/08/03 07:50:05;;;;;;;1.30;1.17;;;;;;;;;;5095226;28;20444;-72
2022/08/03 07:52:52;;;;;;;2.10;1.90;;;;;;;;;;5095168;28;20524;-72
2022/08/03 07:55:20;;;;;;;1.67;1.40;;;;;;;;;;5094346;28;20473;-72
2022/08/03 07:57:48;;;;;;;1.60;1.50;;;;;;;;;;5094185;28;20437;-73
2022/08/03 08:00:16;;;;;;;1.43;1.33;;;;;;;;;;5094279;28;20472;-73
2022/08/03 08:02:45;;;;;;;2.40;2.20;;;;;;;;;;5094053;28;20777;-73
2022/08/03 08:05:12;;;;;;;2.17;1.37;;;;;;;;;;5094371;28;20437;-73
2022/08/03 08:07:40;;;;;;;1.90;1.43;;;;;;;;;;5094263;28;20444;-73
2022/08/03 08:10:08;;;;;;;2.00;1.50;;;;;;;;;;5105477;28;20460;-67
2022/08/03 08:12:36;;;;;;;1.60;1.43;;;;;;;;;;5113013;28;20448;-74
2022/08/03 08:15:03;;;;;;;1.70;1.60;;;;;;;;;;5114343;28;20500;-74
2022/08/03 08:17:31;;;;;;;1.10;1.00;;;;;;;;;;5096781;28;20520;-73
2022/08/03 08:19:59;;;;;;;1.50;1.40;;;;;;;;;;5094816;28;20468;-73
2022/08/03 08:22:26;;;;;;;1.30;1.20;;;;;;;;;;5095017;28;20556;-70
2022/08/03 08:24:53;;;;;;;1.50;1.10;;;;;;;;;;5093400;28;20436;-72
2022/08/03 08:27:21;;;;;;;1.23;1.13;;;;;;;;;;5093973;28;20528;-70
2022/08/03 08:29:48;;;;;;;1.47;1.13;;;;;;;;;;5093534;28;20447;-71
2022/08/03 08:32:15;;;;;;;2.20;1.57;;;;;;;;;;5093755;28;20449;-71
2022/08/03 08:34:42;;;;;;;1.47;1.13;;;;;;;;;;5091541;28;20468;-71
2022/08/03 08:37:11;;;;;;;1.63;1.00;;;;;;;;;;5093641;28;20788;-71
2022/08/03 08:39:38;;;;;;;3.20;1.57;;;;;;;;;;5093482;28;20449;-71
2022/08/03 08:42:05;;;;;;;1.67;1.10;;;;;;;;;;5094006;28;20437;-72
2022/08/03 08:44:32;;;;;;;1.30;1.20;;;;;;;;;;5093561;28;20436;-72
2022/08/03 08:47:02;;;;;;;1.50;1.40;;;;;;;;;;5093067;28;20469;-72
2022/08/03 08:49:30;;;;;;;1.20;1.10;;;;;;;;;;5093829;28;20825;-72
2022/08/03 08:51:58;;;;;;;1.20;1.10;;;;;;;;;;5092780;28;20445;-71
2022/08/03 08:54:27;;;;;;;1.30;1.03;;;;;;;;;;5092821;28;20938;-72
2022/08/03 08:56:58;;;;;;;1.80;1.20;;;;;;;;;;5093132;28;20451;-72
2022/08/03 08:59:25;;;;;;;1.30;1.20;;;;;;;;;;5093448;28;20516;-72
2022/08/03 09:01:57;;;;;;;1.20;1.10;;;;;;;;;;5092469;28;20912;-72
2022/08/03 09:04:24;;;;;;;1.20;1.10;;;;;;;;;;5092644;28;20916;-72
2022/08/03 09:06:52;;;;;;;1.20;1.10;;;;;;;;;;5092816;28;20428;-72
2022/08/03 09:09:19;;;;;;;2.10;1.27;;;;;;;;;;5093463;28;20444;-73
2022/08/03 09:11:49;;;;;;;1.37;1.27;;;;;;;;;;5092620;28;20444;-72
2022/08/03 09:14:16;;;;;;;1.20;1.10;;;;;;;;;;5093118;28;20436;-73
2022/08/03 09:16:56;;;;;;;1.50;1.40;;;;;;;;;;5092186;28;20437;-72
2022/08/03 09:19:24;;;;;;;1.50;1.33;;;;;;;;;;5093141;28;20459;-72
2022/08/03 09:22:07;;;;;;;1.87;1.30;;;;;;;;;;5092004;28;20979;-73
2022/08/03 09:24:35;;;;;;;1.20;1.03;;;;;;;;;;5092741;28;20772;-72
2022/08/03 09:27:05;;;;;;;2.23;1.43;;;;;;;;;;5092849;28;20463;-73
2022/08/03 09:29:32;;;;;;;1.40;1.30;;;;;;;;;;5092942;28;20482;-72
2022/08/03 09:32:01;;;;;;;1.50;1.40;;;;;;;;;;5092322;28;20464;-72
2022/08/03 09:34:28;;;;;;;1.30;1.20;;;;;;;;;;5092041;28;20463;-72
2022/08/03 09:36:56;;;;;;;1.57;1.47;;;;;;;;;;5092217;28;20433;-73
2022/08/03 09:39:25;;;;;;;1.53;1.20;;;;;;;;;;5092753;28;20440;-72
2022/08/03 09:42:06;;;;;;;1.40;1.30;;;;;;;;;;5092333;28;20480;-72
2022/08/03 09:44:37;;;;;;;1.33;1.23;;;;;;;;;;5091986;28;20904;-72
2022/08/03 09:47:05;;;;;;;1.63;1.30;;;;;;;;;;5092725;28;20464;-72
2022/08/03 09:49:33;;;;;;;1.30;1.03;;;;;;;;;;5092435;28;20433;-72
2022/08/03 09:52:02;;;;;;;1.30;1.07;;;;;;;;;;5091571;28;20931;-73
2022/08/03 09:54:30;;;;;;;1.23;1.13;;;;;;;;;;5092238;28;20444;-72
2022/08/03 09:56:58;;;;;;;1.37;1.27;;;;;;;;;;5091761;28;20437;-72
2022/08/03 09:59:27;;;;;;;1.30;1.20;;;;;;;;;;5092383;28;20537;-72
2022/08/03 10:01:54;;;;;;;1.13;1.00;;;;;;;;;;5091629;28;20507;-72
2022/08/03 10:04:22;;;;;;;1.37;1.27;;;;;;;;;;5092074;28;20486;-72
2022/08/03 10:07:03;;;;;;;1.30;1.20;;;;;;;;;;5091608;28;20444;-72
2022/08/03 10:09:30;;;;;;;0.90;0.90;;;;;;;;;;5092248;28;20432;-72
2022/08/03 10:11:58;;;;;;;2.20;1.27;;;;;;;;;;5091450;28;20458;-72
2022/08/03 10:14:30;;;;;;;1.27;1.17;;;;;;;;;;5091201;28;20957;-72
2022/08/03 10:16:57;;;;;;;1.17;1.07;;;;;;;;;;5091468;28;20467;-72
2022/08/03 10:19:25;;;;;;;1.50;1.17;;;;;;;;;;5091895;28;20447;-72
2022/08/03 10:21:55;;;;;;;1.90;1.70;;;;;;;;;;5091426;28;20477;-72
2022/08/03 10:24:26;;;;;;;1.33;1.20;;;;;;;;;;5091737;28;20432;-73
2022/08/03 10:26:54;;;;;;;4.07;1.47;;;;;;;;;;5091490;28;20432;-72
2022/08/03 10:29:23;;;;;;;1.40;1.20;;;;;;;;;;5091752;28;20843;-73
2022/08/03 10:31:54;;;;;;;1.37;1.10;;;;;;;;;;5090908;28;20718;-72
2022/08/03 10:34:24;;;;;;;1.00;0.90;;;21.60;99.90;;;;;;5091245;28;20467;-72
2022/08/03 10:36:53;;;;;;;1.10;1.00;;;30.50;1.00;;;;;;5094571;28;20197;-72
2022/08/03 10:39:22;;;;;;;2.33;1.73;;;30.40;1.00;;;;;;5091613;28;20232;-72
2022/08/03 10:41:51;;;;;;;1.10;1.00;;;30.80;1.00;;;;;;5090676;28;20218;-73
2022/08/03 10:44:19;;;;;;;1.37;1.27;;;30.60;1.00;;;;;;5090958;28;20221;-72
2022/08/03 10:46:49;;;;;;;1.27;1.17;;;30.70;1.00;;;;;;5090706;28;20198;-72
2022/08/03 10:49:19;;;;;;;1.23;1.13;;;30.60;1.00;;;;;;5091709;28;20441;-72
2022/08/03 10:51:48;;;;;;;1.67;1.50;;;30.70;1.00;;;;;;5090942;28;20583;-72
2022/08/03 10:57:42;;;;;;;4.33;1.50;;;30.70;1.00;;;;;;5069218;28;20189;-72
2022/08/03 11:00:10;;;;;;;1.20;1.10;;;30.80;1.00;;;;;;5090747;28;20281;-72
2022/08/03 11:03:08;;;;;;;1.73;1.63;;;30.80;1.00;;;;;;5090636;28;20205;-72
2022/08/03 11:05:42;;;;;;;1.60;1.50;;;30.70;1.00;;;;;;5090923;28;20193;-72
2022/08/03 11:08:26;;;;;;;1.53;1.43;;;30.90;1.00;;;;;;5091128;28;20190;-73
2022/08/03 11:10:55;;;;;;;1.50;1.40;;;31.30;1.00;;;;;;5090736;28;20637;-73
2022/08/03 11:13:25;;;;;;;1.80;1.50;;;31.10;1.00;;;;;;5091415;28;20243;-72
2022/08/03 11:15:55;;;;;;;1.70;1.60;;;31.00;1.00;;;;;;5090508;28;20556;-72
2022/08/03 11:18:23;;;;;;;1.40;1.30;;;31.10;1.00;;;;;;5077647;28;20202;-73
2022/08/03 11:20:53;;;;;;;2.87;1.57;;;31.10;1.00;;;;;;5090657;28;20373;-72
2022/08/03 11:23:36;;;;;;;2.60;1.23;;;31.20;1.00;;;;;;5091135;28;20261;-74
2022/08/03 11:26:11;;;;;;;2.03;1.77;;;31.30;1.00;;;;;;5090703;28;20653;-73
2022/08/03 11:28:38;;;;;;;2.20;1.20;;;31.30;1.00;;;;;;5090500;28;20190;-72
2022/08/03 11:31:46;;;;;;;1.50;1.30;;;31.30;1.00;;;;;;5091047;28;20205;-73
2022/08/03 11:34:15;;;;;;;1.73;1.50;;;31.50;1.00;;;;;;5090416;28;20232;-73
2022/08/03 11:37:20;;;;;;;1.10;1.00;;;31.70;1.00;;;;;;5090304;28;20556;-73
2022/08/03 11:39:51;;;;;;;1.98;1.75;;;31.80;1.00;;;;;;5088889;28;20194;-74
2022/08/03 11:42:42;;;;;;;1.45;1.35;;;31.80;1.00;;;;;;5090829;28;20210;-72
2022/08/03 11:45:09;;;;;;;1.27;1.10;;;31.50;1.00;;;;;;5090394;28;20559;-73
2022/08/03 11:47:40;;;;;;;2.08;1.73;;;31.80;1.00;;;;;;5090276;28;20641;-69
2022/08/03 11:50:09;;;;;;;2.20;1.92;;;31.80;1.00;;;;;;5091071;28;20201;-71
2022/08/03 11:52:41;;;;;;;1.60;1.50;;;31.80;1.00;;;;;;5091148;28;20230;-74
2022/08/03 11:55:14;;;;;;;1.70;1.60;;;32.10;1.00;;;;;;5094409;28;20209;-72
2022/08/03 11:57:41;;;;;;;1.65;1.55;;;31.90;1.00;;;;;;5090562;28;20204;-72
2022/08/03 12:00:24;;;;;;;3.65;1.50;;;31.90;1.00;;;;;;5090878;28;20200;-72
2022/08/03 12:03:06;;;;;;;1.58;1.15;;;31.80;1.00;;;;;;5089022;28;20260;-72
2022/08/03 12:05:47;;;;;;;1.50;1.40;;;31.80;1.00;;;;;;5090777;28;20201;-73
2022/08/03 12:08:17;;;;;;;1.58;1.40;;;31.90;1.00;;;;;;5091980;28;20263;-72
2022/08/03 12:10:52;;;;;;;1.80;1.70;;;32.00;1.00;;;;;;5094864;28;20233;-72
2022/08/03 12:13:22;;;;;;;1.75;1.30;;;32.10;1.00;;;;;;5098804;28;20261;-73
2022/08/03 12:15:52;;;;;;;1.67;1.50;;;32.10;1.00;;;;;;5109686;28;20210;-74
2022/08/03 12:18:20;;;;;;;2.50;1.92;;;31.90;1.00;;;;;;5109260;28;20190;-73
2022/08/03 12:20:49;;;;;;;2.10;1.50;;;32.00;1.00;;;;;;5098893;28;20336;-72
2022/08/03 12:23:18;;;;;;;1.90;1.58;;;32.20;1.00;;;;;;5094896;28;20525;-74
2022/08/03 12:25:46;;;;;;;1.88;1.48;;;;;;;;;;5093459;28;20198;-73
2022/08/03 12:28:18;;;;;;;1.50;1.40;;;;;;;;;;5094191;28;20659;-72
2022/08/03 12:30:46;;;;;;;1.50;1.40;;;;;;;;;;5093738;28;20199;-73
2022/08/03 12:33:18;;;;;;;2.63;1.60;;;;;;;;;;5093957;28;20541;-72
2022/08/03 12:35:46;;;;;;;2.13;1.92;;;;;;;;;;5093436;28;20229;-72
2022/08/03 12:38:13;;;;;;;2.10;1.90;;;;;;;;;;5093874;28;20196;-72
2022/08/03 12:40:42;;;;;;;1.63;1.52;;;;;;;;;;5093264;28;20198;-72
2022/08/03 12:43:13;;;;;;;1.48;1.38;;;;;;;;;;5093765;28;20203;-72
2022/08/03 12:45:40;;;;;;;1.55;1.45;;;;;;;;;;5092494;28;20281;-72
2022/08/03 12:48:10;;;;;;;1.80;1.30;;;;;;;;;;5093830;28;20633;-71
2022/08/03 12:50:38;;;;;;;1.73;1.63;;;;;;;;;;5092838;28;20198;-71
2022/08/03 12:53:05;;;;;;;4.40;3.88;;;;;;;;;;5093518;28;20201;-72
2022/08/03 12:55:36;;;;;;;1.70;1.60;;;;;;;;;;5093296;28;20194;-72
2022/08/03 12:58:05;;;;;;;1.52;1.33;;;;;;;;;;5093922;28;20190;-74
2022/08/03 13:00:32;;;;;;;2.35;2.15;;;;;;;;;;5093531;28;20285;-72
2022/08/03 13:03:00;;;;;;;1.40;1.30;;;;;;;;;;5093048;28;20309;-72
2022/08/03 13:05:27;;;;;;;1.77;1.63;;;;;;;;;;5093246;28;20653;-72
2022/08/03 13:07:55;;;;;;;2.17;1.60;;;;;;;;;;5092772;28;20637;-72
2022/08/03 13:10:29;;;;;;;1.92;1.77;;;;;;;;;;5093122;28;20227;-72
2022/08/03 13:12:57;;;;;;;1.70;1.60;;;;;;;;;;5092605;28;20198;-71
2022/08/03 13:15:26;;;;;;;2.60;1.60;;;;;;;;;;5092896;28;20197;-72
2022/08/03 13:17:54;;;;;;;1.65;1.55;;;;;;;;;;5092388;28;20197;-72
2022/08/03 13:20:21;;;;;;;3.08;1.80;;;;;;;;;;5092353;28;20292;-72
2022/08/03 13:22:49;;;;;;;1.40;1.30;;;;;;;;;;5092234;28;20240;-72
2022/08/03 13:25:16;;;;;;;1.60;1.50;;;;;;;;;;5092422;28;20286;-72
2022/08/03 13:27:43;;;;;;;1.70;1.60;;;;;;;;;;5092025;28;20194;-71
2022/08/03 13:30:11;;;;;;;1.92;1.77;;;;;;;;;;5092853;28;20198;-72
2022/08/03 13:32:39;;;;;;;1.33;1.20;;;;;;;;;;5091894;28;20190;-71
2022/08/03 13:35:07;;;;;;;1.63;1.52;;;;;;;;;;5092426;28;20222;-71
2022/08/03 13:37:35;;;;;;;1.33;1.20;;;;;;;;;;5092758;28;20277;-72
2022/08/03 13:40:02;;;;;;;1.50;1.40;;;;;;;;;;5093182;28;20285;-72
2022/08/03 13:42:30;;;;;;;5.75;1.58;;;;;;;;;;5092634;28;20213;-71
2022/08/03 13:44:57;;;;;;;1.50;1.40;;;;;;;;;;5091488;28;20249;-72
2022/08/03 13:47:24;;;;;;;1.58;1.48;;;;;;;;;;5100679;28;20309;-71
2022/08/03 13:49:53;;;;;;;1.38;1.27;;;;;;;;;;5091757;28;20208;-73
2022/08/03 13:52:20;;;;;;;1.95;1.52;;;;;;;;;;5092231;28;20284;-71
2022/08/03 13:54:47;;;;;;;1.60;1.50;;;;;;;;;;5091553;28;20190;-71
2022/08/03 13:57:14;;;;;;;1.70;1.60;;;;;;;;;;5092291;28;20216;-71
2022/08/03 13:59:42;;;;;;;2.22;1.40;;;;;;;;;;5091456;28;20213;-70
2022/08/03 14:02:09;;;;;;;1.42;1.33;;;;;;;;;;5091721;28;20240;-71
2022/08/03 14:04:37;;;;;;;1.60;1.50;;;;;;;;;;5091440;28;20194;-68
2022/08/03 14:07:05;;;;;;;1.73;1.63;;;;;;;;;;5092097;28;20198;-71
2022/08/03 14:09:32;;;;;;;2.42;1.77;;;;;;;;;;5092034;28;20194;-71
2022/08/03 14:12:00;;;;;;;2.22;1.67;;;;;;;;;;5090937;28;20649;-72
2022/08/03 14:14:27;;;;;;;2.60;1.92;;;;;;;;;;5091260;28;20202;-71
2022/08/03 14:16:55;;;;;;;1.40;1.20;;;;;;;;;;5091380;28;20205;-70
2022/08/03 14:19:22;;;;;;;2.15;1.70;;;;;;;;;;5091770;28;20198;-71
2022/08/03 14:21:49;;;;;;;1.40;1.30;;;;;;;;;;5091177;28;20217;-71
2022/08/03 14:24:17;;;;;;;2.08;1.88;;;;;;;;;;5091252;28;20214;-71
2022/08/03 14:26:44;;;;;;;1.55;1.42;;;;;;;;;;5091187;28;20201;-71
2022/08/03 14:29:12;;;;;;;5.45;4.95;;;;;;;;;;5091395;28;20248;-71
2022/08/03 14:31:39;;;;;;;2.55;2.35;;;;;;;;;;5090127;28;20198;-72